createdAt,value
2022-10-24T00:02:22.883Z,1.85
2022-10-24T00:04:49.368Z,1.50
2022-10-24T00:07:15.794Z,1.73
2022-10-24T00:09:42.459Z,1.38
2022-10-24T00:12:09.026Z,1.65
2022-10-24T00:14:35.787Z,1.42
2022-10-24T00:17:02.152Z,1.65
2022-10-24T00:19:31.517Z,1.50
2022-10-24T00:21:57.828Z,1.40
2022-10-24T00:24:25.234Z,1.80
2022-10-24T00:26:52.117Z,1.90
2022-10-24T00:29:18.558Z,1.58
2022-10-24T00:31:44.964Z,1.30
2022-10-24T00:34:11.698Z,1.45
2022-10-24T00:36:38.153Z,1.33
2022-10-24T00:39:04.565Z,1.35
2022-10-24T00:41:34.774Z,1.45
2022-10-24T00:44:22.126Z,1.30
2022-10-24T00:46:59.768Z,1.50
2022-10-24T00:49:29.943Z,1.55
2022-10-24T00:52:01.892Z,1.15
2022-10-24T00:54:28.455Z,1.58
2022-10-24T00:57:07.830Z,1.35
2022-10-24T00:59:35.068Z,1.58
2022-10-24T01:02:04.720Z,1.33
2022-10-24T01:04:31.104Z,1.60
2022-10-24T01:07:13.265Z,1.45
2022-10-24T01:09:39.642Z,1.65
2022-10-24T01:12:08.950Z,1.50
2022-10-24T01:14:50.533Z,1.30
2022-10-24T01:17:19.982Z,1.38
2022-10-24T01:19:49.531Z,1.88
2022-10-24T01:22:18.861Z,1.60
2022-10-24T01:24:48.272Z,1.33
2022-10-24T01:30:04.843Z,1.60
2022-10-24T01:32:50.362Z,1.20
2022-10-24T01:35:16.698Z,1.38
2022-10-24T01:37:52.272Z,1.60
2022-10-24T01:40:23.975Z,1.67
2022-10-24T01:42:52.065Z,1.20
2022-10-24T01:45:24.040Z,1.13
2022-10-24T01:47:52.432Z,1.70
2022-10-24T01:50:21.012Z,1.38
2022-10-24T01:52:48.135Z,1.45
2022-10-24T01:55:14.485Z,1.83
2022-10-24T01:57:42.505Z,1.15
2022-10-24T02:00:12.205Z,1.58
2022-10-24T02:02:38.518Z,1.40
2022-10-24T02:05:08.766Z,1.40
2022-10-24T02:07:36.918Z,1.25
2022-10-24T02:10:07.152Z,1.27
2022-10-24T02:12:35.054Z,1.20
2022-10-24T02:15:05.005Z,1.30
2022-10-24T02:17:31.353Z,1.70
2022-10-24T02:19:58.105Z,0.93
2022-10-24T02:22:28.179Z,1.27
2022-10-24T02:24:57.844Z,1.50
2022-10-24T02:27:33.303Z,1.08
2022-10-24T02:30:05.400Z,1.02
2022-10-24T02:32:43.033Z,1.20
2022-10-24T02:35:11.043Z,1.35
2022-10-24T02:37:40.189Z,1.10
2022-10-24T02:40:07.249Z,1.10
2022-10-24T02:42:34.348Z,1.05
2022-10-24T02:45:01.175Z,1.10
2022-10-24T02:47:28.387Z,0.90
2022-10-24T02:49:55.165Z,1.77
2022-10-24T02:52:23.482Z,1.10
2022-10-24T02:54:50.232Z,1.13
2022-10-24T02:57:16.769Z,1.45
2022-10-24T02:59:43.167Z,1.23
2022-10-24T03:02:09.548Z,1.20
2022-10-24T03:04:35.878Z,1.58
2022-10-24T03:07:02.277Z,1.45
2022-10-24T03:09:28.614Z,1.40
2022-10-24T03:11:55.129Z,1.45
2022-10-24T03:14:21.501Z,1.67
2022-10-24T03:16:47.943Z,1.63
2022-10-24T03:19:14.313Z,1.50
2022-10-24T03:21:41.653Z,1.50
2022-10-24T03:26:34.799Z,1.52
2022-10-24T03:29:01.170Z,1.70
2022-10-24T03:31:27.592Z,1.75
2022-10-24T03:33:53.975Z,1.92
2022-10-24T03:36:20.337Z,1.92
2022-10-24T03:38:46.743Z,1.65
2022-10-24T03:41:13.095Z,2.20
2022-10-24T03:43:42.391Z,1.70
2022-10-24T03:46:08.812Z,1.83
2022-10-24T03:48:35.204Z,1.70
2022-10-24T03:51:01.579Z,1.95
2022-10-24T03:53:27.979Z,1.80
2022-10-24T03:55:54.925Z,2.05
2022-10-24T03:58:21.287Z,1.80
2022-10-24T04:00:47.603Z,2.13
2022-10-24T04:03:13.962Z,1.92
2022-10-24T04:05:40.829Z,1.75
2022-10-24T04:08:07.195Z,1.60
2022-10-24T04:10:33.644Z,1.75
2022-10-24T04:13:00.007Z,2.53
2022-10-24T04:15:26.368Z,1.65
2022-10-24T04:17:52.723Z,1.63
2022-10-24T04:20:20.553Z,1.70
2022-10-24T04:22:47.741Z,1.83
2022-10-24T04:25:14.583Z,1.92
2022-10-24T04:27:41.023Z,1.65
2022-10-24T04:30:16.414Z,2.10
2022-10-24T04:32:43.602Z,2.63
2022-10-24T04:35:12.052Z,2.50
2022-10-24T04:37:38.384Z,1.92
2022-10-24T04:40:05.033Z,2.35
2022-10-24T04:42:31.457Z,1.92
2022-10-24T04:44:57.822Z,1.80
2022-10-24T04:47:24.132Z,1.73
2022-10-24T04:49:50.495Z,1.70
2022-10-24T04:52:16.857Z,2.20
2022-10-24T04:54:43.265Z,1.65
2022-10-24T04:57:09.604Z,1.95
2022-10-24T04:59:36.018Z,2.00
2022-10-24T05:02:02.426Z,2.25
2022-10-24T05:04:28.810Z,2.22
2022-10-24T05:06:55.232Z,1.90
2022-10-24T05:09:21.566Z,2.08
2022-10-24T05:11:47.899Z,1.50
2022-10-24T05:14:14.304Z,1.90
2022-10-24T05:16:40.631Z,1.75
2022-10-24T05:19:07.004Z,1.70
2022-10-24T05:21:33.823Z,1.95
2022-10-24T05:24:00.208Z,2.17
2022-10-24T05:26:26.587Z,2.40
2022-10-24T05:28:52.995Z,1.65
2022-10-24T05:31:19.471Z,2.03
2022-10-24T05:33:45.918Z,2.40
2022-10-24T05:36:12.317Z,2.45
2022-10-24T05:38:38.644Z,1.92
2022-10-24T05:41:05.138Z,2.10
2022-10-24T05:43:31.450Z,2.47
2022-10-24T05:45:57.752Z,2.20
2022-10-24T05:48:24.110Z,2.30
2022-10-24T05:50:50.437Z,2.15
2022-10-24T05:53:16.742Z,2.20
2022-10-24T05:55:43.244Z,2.55
2022-10-24T05:58:09.597Z,1.88
2022-10-24T06:00:35.969Z,2.15
2022-10-24T06:03:02.297Z,2.10
2022-10-24T06:05:28.751Z,1.95
2022-10-24T06:07:55.133Z,2.05
2022-10-24T06:10:21.518Z,2.20
2022-10-24T06:12:48.153Z,2.10
2022-10-24T06:15:14.767Z,2.05
2022-10-24T06:17:41.144Z,2.15
2022-10-24T06:20:07.770Z,2.10
2022-10-24T06:22:34.188Z,1.98
2022-10-24T06:25:01.625Z,2.25
2022-10-24T06:27:28.219Z,1.70
2022-10-24T06:29:54.549Z,1.75
2022-10-24T06:32:20.869Z,2.35
2022-10-24T06:34:47.340Z,2.20
2022-10-24T06:37:13.705Z,1.98
2022-10-24T06:39:40.133Z,2.15
2022-10-24T06:42:06.480Z,2.10
2022-10-24T06:44:32.963Z,1.92
2022-10-24T06:46:59.684Z,2.17
2022-10-24T06:49:26.165Z,2.05
2022-10-24T06:51:52.516Z,2.22
2022-10-24T06:54:18.883Z,2.08
2022-10-24T06:56:45.299Z,1.92
2022-10-24T06:59:13.905Z,2.30
2022-10-24T07:01:40.437Z,1.90
2022-10-24T07:04:07.689Z,1.73
2022-10-24T07:06:34.084Z,1.90
2022-10-24T07:09:01.086Z,1.92
2022-10-24T07:11:28.038Z,2.47
2022-10-24T07:13:57.935Z,2.03
2022-10-24T07:16:28.317Z,2.08
2022-10-24T07:18:54.863Z,2.22
2022-10-24T07:21:22.835Z,2.42
2022-10-24T07:23:51.633Z,2.50
2022-10-24T07:26:18.468Z,1.85
2022-10-24T07:28:46.608Z,2.30
2022-10-24T07:31:16.544Z,1.98
2022-10-24T07:33:42.881Z,1.55
2022-10-24T07:36:09.757Z,1.58
2022-10-24T07:38:37.206Z,1.88
2022-10-24T07:41:06.813Z,2.10
2022-10-24T07:43:33.141Z,1.88
2022-10-24T07:48:30.795Z,1.60
2022-10-24T07:50:57.125Z,1.63
2022-10-24T07:53:26.119Z,1.60
2022-10-24T07:55:52.438Z,1.95
2022-10-24T07:58:18.789Z,1.90
2022-10-24T08:00:45.678Z,1.70
2022-10-24T08:03:12.260Z,2.10
2022-10-24T08:05:39.630Z,1.80
2022-10-24T08:08:34.717Z,1.80
2022-10-24T08:10:52.404Z,1.65
2022-10-24T08:13:19.017Z,1.70
2022-10-24T08:15:45.575Z,1.70
2022-10-24T08:18:11.934Z,1.77
2022-10-24T08:20:38.289Z,1.75
2022-10-24T08:23:04.594Z,1.80
2022-10-24T08:25:31.016Z,1.73
2022-10-24T08:27:58.095Z,1.90
2022-10-24T08:30:24.753Z,1.75
2022-10-24T08:32:51.140Z,2.25
2022-10-24T08:35:19.027Z,1.85
2022-10-24T08:37:45.746Z,1.42
2022-10-24T08:40:16.354Z,1.70
2022-10-24T08:42:43.406Z,1.88
2022-10-24T08:45:12.207Z,1.50
2022-10-24T08:47:42.452Z,1.70
2022-10-24T08:50:27.164Z,1.52
2022-10-24T08:53:06.168Z,1.67
2022-10-24T08:55:55.711Z,1.83
2022-10-24T08:58:26.341Z,2.10
2022-10-24T09:00:53.854Z,1.60
2022-10-24T09:06:27.493Z,1.65
2022-10-24T09:09:04.289Z,2.03
2022-10-24T09:11:49.343Z,2.17
2022-10-24T09:14:20.279Z,1.95
2022-10-24T09:16:49.839Z,1.90
2022-10-24T09:19:18.342Z,1.90
2022-10-24T09:21:45.209Z,1.70
2022-10-24T09:24:24.034Z,2.05
2022-10-24T09:26:50.415Z,1.85
2022-10-24T09:29:16.987Z,1.70
2022-10-24T09:31:43.428Z,1.98
2022-10-24T09:34:11.127Z,2.10
2022-10-24T09:36:39.111Z,1.80
2022-10-24T09:39:23.054Z,2.20
2022-10-24T09:41:49.597Z,2.42
2022-10-24T09:44:28.130Z,1.40
2022-10-24T09:46:54.738Z,1.77
2022-10-24T09:49:22.821Z,1.90
2022-10-24T09:52:21.673Z,2.05
2022-10-24T09:55:03.999Z,2.00
2022-10-24T09:57:38.343Z,1.58
2022-10-24T10:00:05.080Z,1.90
2022-10-24T10:02:34.785Z,1.38
2022-10-24T10:05:04.571Z,1.40
2022-10-24T10:07:32.533Z,1.60
2022-10-24T10:10:00.337Z,1.40
2022-10-24T10:12:32.614Z,1.65
2022-10-24T10:14:59.466Z,1.75
2022-10-24T10:17:26.768Z,1.50
2022-10-24T10:19:54.531Z,1.23
2022-10-24T10:22:26.932Z,1.30
2022-10-24T10:24:53.795Z,1.30
2022-10-24T10:27:27.995Z,1.08
2022-10-24T10:30:24.023Z,1.70
2022-10-24T10:32:55.629Z,1.02
2022-10-24T10:35:24.825Z,0.73
2022-10-24T10:38:00.083Z,0.90
2022-10-24T10:40:26.566Z,0.80
2022-10-24T10:42:52.990Z,0.70
2022-10-24T10:45:37.864Z,0.63
2022-10-24T10:48:23.271Z,0.70
2022-10-24T10:51:05.891Z,0.88
2022-10-24T10:53:42.510Z,0.90
2022-10-24T10:56:15.026Z,0.50
2022-10-24T10:58:41.379Z,0.90
2022-10-24T11:01:10.793Z,0.73
2022-10-24T11:03:48.319Z,0.80
2022-10-24T11:06:44.181Z,1.45
2022-10-24T11:09:31.118Z,0.60
2022-10-24T11:11:57.440Z,0.90
2022-10-24T11:14:26.540Z,0.50
2022-10-24T11:16:56.322Z,0.65
2022-10-24T11:19:31.722Z,0.70
2022-10-24T11:22:00.739Z,0.80
2022-10-24T11:24:27.433Z,0.70
2022-10-24T11:27:08.959Z,0.80
2022-10-24T11:29:41.474Z,0.60
2022-10-24T11:32:07.781Z,0.65
2022-10-24T11:34:34.153Z,0.50
2022-10-24T11:37:07.170Z,0.63
2022-10-24T11:39:36.541Z,0.60
2022-10-24T11:42:17.719Z,0.57
2022-10-24T11:45:02.840Z,0.80
2022-10-24T11:47:29.174Z,0.70
2022-10-24T11:50:03.579Z,0.80
2022-10-24T11:52:32.706Z,0.60
2022-10-24T11:54:59.052Z,0.65
2022-10-24T11:57:27.280Z,0.75
2022-10-24T11:59:54.169Z,0.80
2022-10-24T12:02:23.498Z,0.65
2022-10-24T12:05:08.580Z,0.85
2022-10-24T12:07:34.860Z,0.77
2022-10-24T12:10:16.579Z,0.70
2022-10-24T12:13:01.782Z,0.73
2022-10-24T12:15:37.648Z,0.60
2022-10-24T12:18:25.769Z,0.50
2022-10-24T12:20:53.189Z,0.65
2022-10-24T12:23:21.940Z,0.50
2022-10-24T12:26:01.236Z,0.73
2022-10-24T12:28:27.728Z,0.45
2022-10-24T12:31:20.990Z,0.52
2022-10-24T12:34:09.404Z,0.50
2022-10-24T12:36:54.399Z,0.70
2022-10-24T12:39:34.716Z,0.60
2022-10-24T12:42:01.388Z,0.50
2022-10-24T12:44:33.935Z,0.50
2022-10-24T12:47:01.039Z,0.60
2022-10-24T12:49:28.296Z,0.68
2022-10-24T12:51:55.069Z,0.63
2022-10-24T12:54:41.432Z,0.80
2022-10-24T12:57:08.894Z,0.60
2022-10-24T12:59:45.161Z,0.70
2022-10-24T13:02:11.651Z,0.65
2022-10-24T13:04:56.988Z,0.40
2022-10-24T13:07:43.653Z,0.63
2022-10-24T13:10:20.469Z,0.50
2022-10-24T13:12:56.811Z,0.43
2022-10-24T13:15:29.432Z,0.73
2022-10-24T13:18:08.094Z,0.70
2022-10-24T13:20:38.729Z,0.40
2022-10-24T13:23:13.662Z,0.40
2022-10-24T13:25:40.476Z,0.52
2022-10-24T13:28:25.258Z,0.60
2022-10-24T13:30:53.309Z,0.60
2022-10-24T13:33:28.983Z,0.50
2022-10-24T13:40:52.784Z,0.60
2022-10-24T13:43:22.136Z,0.52
2022-10-24T13:45:48.496Z,0.52
2022-10-24T13:48:19.131Z,0.73
2022-10-24T13:51:04.225Z,0.50
2022-10-24T13:53:32.640Z,0.45
2022-10-24T13:56:00.868Z,0.50
2022-10-24T13:58:27.456Z,0.70
2022-10-24T14:00:57.591Z,0.60
2022-10-24T14:03:25.775Z,0.50
2022-10-24T14:05:52.174Z,0.50
2022-10-24T14:08:23.916Z,0.65
2022-10-24T14:10:51.660Z,0.60
2022-10-24T14:13:18.969Z,0.50
2022-10-24T14:16:11.961Z,0.45
2022-10-24T14:18:39.444Z,0.52
2022-10-24T14:21:05.904Z,0.52
2022-10-24T14:23:32.239Z,0.55
2022-10-24T14:26:00.982Z,0.47
2022-10-24T14:28:28.892Z,0.60
2022-10-24T14:31:00.129Z,0.65
2022-10-24T14:33:30.704Z,0.70
2022-10-24T14:35:59.106Z,0.68
2022-10-24T14:38:26.823Z,0.65
2022-10-24T14:41:06.422Z,0.90
2022-10-24T14:43:34.453Z,0.75
2022-10-24T14:46:25.551Z,0.90
2022-10-24T14:48:52.294Z,0.70
2022-10-24T14:51:21.709Z,0.77
2022-10-24T14:53:50.255Z,1.00
2022-10-24T14:56:25.448Z,0.95
2022-10-24T14:58:52.899Z,0.80
2022-10-24T15:01:20.141Z,0.63
2022-10-24T15:03:52.656Z,0.75
2022-10-24T15:06:26.578Z,1.20
2022-10-24T15:09:05.213Z,0.90
2022-10-24T15:11:35.003Z,1.00
2022-10-24T15:14:08.553Z,1.10
2022-10-24T15:16:37.460Z,1.10
2022-10-24T15:19:05.958Z,0.85
2022-10-24T15:21:35.747Z,1.10
2022-10-24T15:24:02.287Z,1.77
2022-10-24T15:26:31.467Z,1.20
2022-10-24T15:29:06.216Z,1.15
2022-10-24T15:31:33.858Z,1.42
2022-10-24T15:34:00.281Z,1.00
2022-10-24T15:36:30.778Z,1.10
2022-10-24T15:38:59.624Z,1.40
2022-10-24T15:41:27.073Z,1.30
2022-10-24T15:43:53.623Z,1.30
2022-10-24T15:46:20.030Z,1.45
2022-10-24T15:48:46.471Z,1.80
2022-10-24T15:51:17.048Z,1.20
2022-10-24T15:53:44.056Z,1.30
2022-10-24T15:56:11.897Z,1.30
2022-10-24T15:58:39.148Z,1.30
2022-10-24T16:01:06.101Z,1.80
2022-10-24T16:03:33.314Z,1.80
2022-10-24T16:05:59.806Z,1.48
2022-10-24T16:08:26.208Z,1.70
2022-10-24T16:10:53.073Z,2.00
2022-10-24T16:13:21.054Z,1.40
2022-10-24T16:15:48.479Z,1.67
2022-10-24T16:18:15.299Z,1.42
2022-10-24T16:20:41.878Z,1.52
2022-10-24T16:23:08.632Z,1.60
2022-10-24T16:25:36.457Z,1.60
2022-10-24T16:28:03.800Z,1.70
2022-10-24T16:30:31.738Z,1.67
2022-10-24T16:32:58.292Z,1.77
2022-10-24T16:35:32.448Z,2.00
2022-10-24T16:37:59.339Z,2.17
2022-10-24T16:40:26.939Z,2.00
2022-10-24T16:42:54.408Z,1.65
2022-10-24T16:45:20.899Z,2.10
2022-10-24T16:47:47.985Z,1.90
2022-10-24T16:50:23.742Z,1.90
2022-10-24T16:52:54.296Z,2.28
2022-10-24T16:55:21.170Z,1.67
2022-10-24T16:57:48.095Z,2.33
2022-10-24T17:00:17.047Z,2.20
2022-10-24T17:02:48.377Z,2.25
2022-10-24T17:05:15.418Z,2.15
2022-10-24T17:07:42.119Z,2.13
2022-10-24T17:10:09.184Z,2.33
2022-10-24T17:12:35.650Z,2.65
2022-10-24T17:15:02.110Z,2.70
2022-10-24T17:17:29.608Z,1.80
2022-10-24T17:19:55.947Z,2.45
2022-10-24T17:22:22.452Z,2.15
2022-10-24T17:24:48.955Z,2.40
2022-10-24T17:27:15.323Z,2.10
2022-10-24T17:29:42.363Z,2.35
2022-10-24T17:32:10.766Z,2.05
2022-10-24T17:34:37.311Z,2.20
2022-10-24T17:37:06.227Z,2.63
2022-10-24T17:39:52.856Z,2.65
2022-10-24T17:42:19.474Z,3.13
2022-10-24T17:44:45.956Z,3.60
2022-10-24T17:47:12.476Z,2.50
2022-10-24T17:49:38.843Z,2.53
2022-10-24T17:52:05.184Z,2.33
2022-10-24T17:54:31.543Z,2.85
2022-10-24T17:56:57.891Z,2.58
2022-10-24T17:59:24.177Z,2.90
2022-10-24T18:01:50.619Z,3.17
2022-10-24T18:04:17.132Z,2.90
2022-10-24T18:06:43.633Z,3.25
2022-10-24T18:09:10.137Z,3.47
2022-10-24T18:11:36.505Z,2.80
2022-10-24T18:14:03.351Z,3.28
2022-10-24T18:16:30.755Z,3.03
2022-10-24T18:18:57.351Z,2.53
2022-10-24T18:21:28.122Z,2.55
2022-10-24T18:23:54.875Z,2.47
2022-10-24T18:26:22.710Z,3.08
2022-10-24T18:28:50.111Z,2.30
2022-10-24T18:31:20.941Z,2.70
2022-10-24T18:33:48.836Z,1.95
2022-10-24T18:36:19.272Z,2.40
2022-10-24T18:38:45.985Z,2.30
2022-10-24T18:41:28.545Z,2.88
2022-10-24T18:43:55.527Z,2.80
2022-10-24T18:46:22.383Z,2.20
2022-10-24T18:48:48.935Z,2.80
2022-10-24T18:51:24.599Z,2.60
2022-10-24T18:58:47.712Z,2.10
2022-10-24T19:01:21.655Z,2.35
2022-10-24T19:03:48.119Z,2.50
2022-10-24T19:06:17.424Z,2.25
2022-10-24T19:08:43.835Z,2.65
2022-10-24T19:11:14.125Z,2.45
2022-10-24T19:13:44.948Z,2.83
2022-10-24T19:16:14.898Z,2.30
2022-10-24T19:18:43.296Z,2.47
2022-10-24T19:21:09.699Z,2.42
2022-10-24T19:23:36.111Z,2.30
2022-10-24T19:26:02.476Z,2.33
2022-10-24T19:28:28.853Z,2.17
2022-10-24T19:30:55.244Z,2.35
2022-10-24T19:33:24.965Z,2.58
2022-10-24T19:35:51.468Z,2.60
2022-10-24T19:38:18.224Z,2.22
2022-10-24T19:40:49.560Z,2.38
2022-10-24T19:43:15.928Z,2.20
2022-10-24T19:45:50.118Z,2.40
2022-10-24T19:48:22.112Z,2.13
2022-10-24T19:50:48.508Z,2.70
2022-10-24T19:53:15.740Z,2.22
2022-10-24T19:55:42.774Z,2.53
2022-10-24T19:58:13.090Z,1.90
2022-10-24T20:00:39.562Z,2.10
2022-10-24T20:03:06.144Z,2.25
2022-10-24T20:05:32.535Z,2.15
2022-10-24T20:07:58.876Z,2.60
2022-10-24T20:10:25.391Z,2.50
2022-10-24T20:12:51.692Z,2.13
2022-10-24T20:15:19.159Z,2.30
2022-10-24T20:17:46.052Z,2.28
2022-10-24T20:20:12.772Z,2.22
2022-10-24T20:22:39.138Z,2.08
2022-10-24T20:25:05.986Z,1.88
2022-10-24T20:27:32.856Z,2.00
2022-10-24T20:29:59.265Z,1.98
2022-10-24T20:32:25.622Z,2.38
2022-10-24T20:34:51.960Z,2.10
2022-10-24T20:37:18.280Z,2.20
2022-10-24T20:39:44.618Z,2.10
2022-10-24T20:42:11.438Z,1.83
2022-10-24T20:44:37.793Z,2.10
2022-10-24T20:47:04.168Z,1.98
2022-10-24T20:49:30.530Z,2.05
2022-10-24T20:51:56.904Z,2.08
2022-10-24T20:54:23.266Z,1.83
2022-10-24T20:56:49.553Z,2.00
2022-10-24T20:59:16.691Z,1.77
2022-10-24T21:01:43.173Z,1.95
2022-10-24T21:04:09.665Z,2.05
2022-10-24T21:06:35.983Z,1.95
2022-10-24T21:11:35.085Z,1.63
2022-10-24T21:14:05.963Z,2.00
2022-10-24T21:16:32.594Z,2.00
2022-10-24T21:18:59.010Z,1.90
2022-10-24T21:21:25.374Z,2.28
2022-10-24T21:23:52.614Z,1.98
2022-10-24T21:26:19.480Z,1.85
2022-10-24T21:28:45.842Z,2.00
2022-10-24T21:31:13.616Z,1.70
2022-10-24T21:33:43.340Z,1.27
2022-10-24T21:36:19.481Z,1.80
2022-10-24T21:38:46.354Z,1.63
2022-10-24T21:41:12.715Z,1.58
2022-10-24T21:43:40.047Z,1.88
2022-10-24T21:46:06.432Z,1.70
2022-10-24T21:48:35.028Z,1.80
2022-10-24T21:51:02.493Z,1.67
2022-10-24T21:53:29.379Z,1.52
2022-10-24T21:56:02.803Z,1.70
2022-10-24T21:58:29.169Z,1.55
2022-10-24T22:00:56.704Z,2.25
2022-10-24T22:03:25.621Z,1.65
2022-10-24T22:05:55.294Z,1.50
2022-10-24T22:08:22.328Z,1.77
2022-10-24T22:10:55.488Z,1.58
2022-10-24T22:13:22.012Z,2.20
2022-10-24T22:15:48.409Z,1.83
2022-10-24T22:18:14.752Z,1.50
2022-10-24T22:20:41.153Z,2.28
2022-10-24T22:23:07.511Z,1.80
2022-10-24T22:25:33.900Z,2.08
2022-10-24T22:28:00.294Z,1.77
2022-10-24T22:30:26.622Z,1.80
2022-10-24T22:32:53.183Z,1.40
2022-10-24T22:35:19.815Z,2.30
2022-10-24T22:37:46.329Z,1.98
2022-10-24T22:40:30.156Z,1.48
2022-10-24T22:42:56.872Z,1.65
2022-10-24T22:45:23.790Z,2.05
2022-10-24T22:47:54.075Z,1.95
2022-10-24T22:50:39.033Z,1.90
2022-10-24T22:53:07.769Z,2.10
2022-10-24T22:55:37.256Z,1.88
2022-10-24T22:58:03.782Z,2.00
2022-10-24T23:00:30.281Z,2.00
2022-10-24T23:03:25.859Z,1.90
2022-10-24T23:05:58.592Z,1.70
2022-10-24T23:08:36.952Z,1.80
2022-10-24T23:11:03.454Z,1.95
2022-10-24T23:13:30.410Z,2.05
2022-10-24T23:16:00.322Z,2.05
2022-10-24T23:18:27.970Z,2.05
2022-10-24T23:21:00.694Z,2.00
2022-10-24T23:23:29.545Z,2.40
2022-10-24T23:26:00.706Z,1.88
2022-10-24T23:28:41.018Z,2.50
2022-10-24T23:31:07.536Z,2.10
2022-10-24T23:33:34.126Z,2.35
2022-10-24T23:36:00.657Z,1.88
2022-10-24T23:38:27.228Z,1.90
2022-10-24T23:40:53.756Z,1.95
2022-10-24T23:43:21.138Z,1.80
2022-10-24T23:45:57.495Z,1.85
2022-10-24T23:48:53.408Z,2.33
2022-10-24T23:51:31.160Z,1.95
2022-10-24T23:53:58.102Z,2.17
2022-10-24T23:56:25.623Z,2.00
2022-10-24T23:58:51.971Z,2.00
